Station: Gluepot

  Atmospheric Gas Attenuation - ITU Rec 676-11   --------------- db/100km ---------------
Date Time Temp RH % AH g/m3 Dew Point Wind Direction Speed kph Gust kph Barometer mB Rainfall Since 9am 24GHz 47GHz 76GHz 122GHz 134GHz 241GHz
02 09:00 21 69 12.64 15.1 2 1013.1 2 27.8 30.3 52.2 137.5 141.6 490.4
01 09:00 30 28 8.49 9.6 7 1013.1 0 18.6 21.5 32.3 84.6 79.1 272.9
30 09:00 24.5 30 6.71 6 0 1013.1 0 15.2 20.4 28.5 74.5 65.0 222.8
29 09:00 19.5 63 10.57 12.4 2 1013.1 0 23.5 27.4 44.6 117.4 116.4 402.2
28 09:00 19.5 55 9.23 10.2 2 1013.1 0 20.6 25.3 39.4 103.5 99.3 342.3
27 09:00 16.5 64 8.99 9.8 2 1013.1 0 20.3 25.7 40.0 105.0 100.0 344.6
26 09:00 15 68 8.72 9.2 4 1013.1 4 19.8 25.7 39.7 104.1 98.4 338.8
25 09:00 19 100 16.29 19 7 1013.1 18 35.7 37.6 70.1 185.3 199.7 692.6
24 09:00 24 63 13.71 16.7 2 1013.1 0.6 29.8 31.0 54.6 144.0 150.5 521.8
23 09:00 21.5 65 12.26 14.7 2 1013.1 0 26.9 29.5 50.3 132.5 135.6 469.4
22 09:00 17.5 56 8.35 8.8 2 1013.1 0 18.9 24.5 37.0 97.1 90.7 312.0
21 09:00 14 62 7.48 6.8 7 1013.1 5 17.2 24.1 35.3 92.5 83.7 287.0
20 09:00 12.5 100 11 12.5 2 1013.1 7 24.8 30.4 50.7 133.5 133.8 461.9
19 09:00 15.5 89 11.76 13.7 2 1013.1 10 26.3 30.7 52.1 137.2 139.4 482.0
18 09:00 26 55 13.39 16.3 11 1013.1 0 29.0 29.8 51.9 136.9 142.4 494.0
17 09:00 18 66 10.14 11.6 2 1013.1 0 22.7 27.1 43.8 115.1 113.0 390.0
16 09:00 13.5 61 7.14 6.2 7 1013.1 0 16.5 23.7 34.2 89.6 79.9 273.7
15 09:00 14 67 8.08 8 11 1013.1 0 18.5 25.0 37.6 98.7 91.4 313.8
14 09:00 13.5 61 7.14 6.2 17 1013.1 0.4 16.5 23.7 34.2 89.6 79.9 273.7
13 09:00 13 66 7.49 6.8 11 1013.1 1 17.3 24.3 35.8 93.7 84.9 291.1
12 09:00 12 82 8.74 9 13 1013.1 16 20.0 26.7 41.3 108.4 102.6 353.0
11 09:00 12 59 6.29 4.3 11 1013.1 0 14.7 22.8 31.6 82.6 70.8 241.4
10 09:00 13 88 9.98 11.1 11 1013.1 1 22.6 28.4 45.9 120.8 118.3 408.0
09 09:00 16 64 8.72 9.2 2 1013.1 0 19.7 25.4 39.2 102.8 97.2 334.5
08 09:00 15.5 54 7.14 6.2 7 1013.1 0 16.4 23.2 33.4 87.3 77.9 267.0
07 09:00 15.5 78 10.31 11.8 2 1013.1 3 23.2 28.2 45.9 120.7 119.0 410.8
06 09:00 24.5 50 11.19 13.4 2 1013.1 0 24.5 26.8 44.3 116.5 116.9 404.4
05 09:00 19.5 51 8.56 9.1 2 1013.1 0 19.2 24.2 36.9 96.8 91.0 313.3
04 09:00 15 73 9.36 10.2 6 1013.1 0 21.2 26.8 42.2 111.0 106.9 368.4
03 09:00 20 77 13.31 15.8 2 1013.1 0.4 29.3 31.8 55.7 146.9 152.9 529.6
02 09:00 24 49 10.66 12.7 4 1013.1 0 23.4 26.2 42.5 111.9 111.0 383.9
01 09:00 21 27 4.95 1.4 2 1013.1 0 11.6 18.9 24.0 62.3 48.9 165.6
31 09:00 14 56 6.75 5.5 0 1013.1 0 15.6 22.9 32.5 85.1 74.6 255.1
30 09:00 13 55 6.24 4.2 0 1013.1 0 14.6 22.4 31.0 81.1 69.3 236.3
29 09:00 14 89 10.74 12.2 15 1013.1 5 24.2 29.4 48.6 127.9 127.4 440.0
28 09:00 18 70 10.75 12.6 0 1013.1 0.6 24.0 28.1 46.2 121.7 121.1 418.4
27 09:00 22 16 3.11 -4.8 7 1013.1 0 7.8 16.4 18.2 46.8 30.1 99.4
26 09:00 18 24 3.69 -2.6 4 1013.1 0 9.1 17.8 20.9 53.8 37.4 124.9
25 09:00 13 50 5.67 2.8 2 1013.1 0 13.4 21.6 29.0 75.5 62.4 212.2
24 09:00 13.5 66 7.72 7.4 7 1013.1 0 17.7 24.6 36.5 95.5 87.3 299.5
23 09:00 16.5 55 7.72 7.5 9 1013.1 0 17.6 23.8 35.1 92.0 84.0 288.5
22 09:00 17 70 10.13 11.5 0 1013.1 0 22.7 27.4 44.3 116.4 114.3 394.6
21 09:00 20 64 11.06 13 13 1013.1 0.6 24.5 28.0 46.3 121.9 122.1 422.1
20 09:00 17.5 35 5.22 2 15 1013.1 0 12.3 19.9 25.9 67.4 54.0 183.2
19 09:00 14.5 57 7.09 6.2 9 1013.1 0 16.3 23.3 33.6 87.9 78.3 268.2
18 09:00 16 64 8.72 9.2 2 1013.1 0 19.7 25.4 39.2 102.8 97.2 334.5
17 09:00 13 66 7.49 6.8 0 1013.1 0 17.3 24.3 35.8 93.7 84.9 291.1
16 09:00 13 66 7.49 6.8 7 1013.1 0 17.3 24.3 35.8 93.7 84.9 291.1
15 09:00 12.5 76 8.36 8.5 7 1013.1 12 19.1 25.9 39.5 103.6 96.8 332.9
14 09:00 11 81 8.11 7.9 0 1013.1 1 18.7 25.9 39.2 102.8 95.4 327.5
13 09:00 14 62 7.48 6.8 4 1013.1 0.2 17.2 24.1 35.3 92.5 83.7 287.0
12 09:00 13.5 41 4.8 0.5 4 1013.1 0 11.5 20.2 25.7 66.9 51.9 175.3
10 09:00 11.5 76 7.85 7.4 4 1013.1 3 18.1 25.3 37.9 99.4 91.3 313.2
09 09:00 20 21 3.63 -2.6 15 1013.1 0 8.9 17.4 20.2 52.1 35.9 119.8
08 09:00 13 55 6.24 4.2 4 1013.1 0 14.6 22.4 31.0 81.1 69.3 236.3
07 09:00 12.5 49 5.39 2.1 15 1013.1 0 12.8 21.3 28.1 73.3 59.4 201.7
06 09:00 19 26 4.24 -0.6 7 1013.1 0 10.2 18.4 22.3 57.8 42.6 143.3
05 09:00 14 62 7.48 6.8 9 1013.1 0.6 17.2 24.1 35.3 92.5 83.7 287.0
04 09:00 15.5 44 5.82 3.5 24 1013.1 0 13.6 21.2 28.6 74.6 62.2 211.8
03 09:00 17.5 70 10.44 12.1 4 1013.1 23.3 27.8 45.2 119.0 117.7 406.5
02 09:00 14 67 8.08 8 4 1013.1 0 18.5 25.0 37.6 98.7 91.4 313.8
01 09:00 15.5 73 9.65 10.8 13 1013.1 0 21.7 27.1 43.1 113.4 110.1 379.5
30 09:00 16 74 10.08 11.4 7 1013.1 2 22.6 27.6 44.6 117.4 115.1 397.3
29 09:00 18 66 10.14 11.6 4 1013.1 0.6 22.7 27.1 43.8 115.1 113.0 390.0
28 09:00 17 30 4.34 -0.6 4 1013.1 0 10.5 18.9 23.2 60.0 44.7 150.5
27 09:00 18 24 3.69 -2.6 6 1013.1 0 9.1 17.8 20.9 53.8 37.4 124.9
26 09:00 14 41 4.95 1.2 7 1013.1 0 11.8 20.3 26.1 67.8 53.3 180.2
22 09:00 13 71 8.05 7.9 2 1013.1 0 18.5 25.2 38.0 99.6 92.1 316.5
21 09:00 12 53 5.65 2.9 15 1013.1 0 13.4 21.8 29.3 76.3 62.9 213.9
20 09:00 14.5 47 5.85 3.5 19 1013.1 0 13.7 21.5 29.1 75.8 63.3 215.7
19 09:00 17 43 6.22 4.3 7 1013.1 0 14.4 21.4 29.5 77.0 65.6 224.1
18 09:00 14.5 52 6.47 4.9 19 1013.1 0 15.0 22.4 31.3 81.8 70.7 241.6
17 09:00 22 25 4.85 1.5 9 1013.1 0 11.4 18.5 23.4 60.7 47.3 160.1
16 09:00 17 34 4.92 1.2 9 1013.1 0 11.7 19.6 25.1 65.1 51.0 172.6
15 09:00 11 63 6.31 4.3 2 1013.1 0 14.8 23.0 32.1 83.8 71.9 245.3
14 09:00 12 65 6.93 5.6 2 1013.1 0 16.1 23.7 34.1 89.1 78.8 269.6
13 09:00 12 59 6.29 4.3 11 1013.1 0.8 14.7 22.8 31.6 82.6 70.8 241.4
12 09:00 14.5 47 5.85 3.5 13 1013.1 0 13.7 21.5 29.1 75.8 63.3 215.7
11 09:00 25.5 12 2.84 -5.7 15 1013.1 0 7.1 15.5 16.8 42.9 26.4 86.8
10 09:00 18 28 4.3 -0.6 0 1013.1 0 10.3 18.6 22.8 59.0 43.8 147.2
09 09:00 20 28 4.84 1.3 4 1013.1 0 11.4 18.9 23.9 62.1 48.3 163.5
08 09:00 12.1 76 8.15 8 0 1013.1 0 18.7 25.6 38.8 101.8 94.5 324.8
07 09:00 12.5 76 8.36 8.5 2 1013.1 0 19.1 25.9 39.5 103.6 96.8 332.9
06 09:00 12 82 8.74 9 2 1013.1 0.1 20.0 26.7 41.3 108.4 102.6 353.0
05 09:00 10.5 75 7.28 6.2 4 1013.1 4 16.9 24.7 36.1 94.5 84.9 290.7
04 09:00 12.5 65 7.15 6.2 4 1013.1 10 16.6 23.9 34.7 90.8 81.1 277.6
03 09:00 14 94 11.34 13.1 6 1013.1 0 25.5 30.5 51.2 134.9 136.0 470.1
02 09:00 23.5 22 4.65 0.8 15 1013.1 0 10.9 18.0 22.4 58.0 44.4 150.2
01 09:00 17 51 7.38 7 0 1013.1 0 16.9 23.1 33.6 88.1 79.4 272.2
31 09:00 20 29 5.01 1.7 15 1013.1 0 11.8 19.2 24.5 63.6 50.1 169.9
29 09:00 12 82 8.74 9 15 1013.1 0.8 20.0 26.7 41.3 108.4 102.6 353.0
28 09:00 14 62 7.48 6.8 15 1013.1 0 17.2 24.1 35.3 92.5 83.7 287.0
27 09:00 9 67 5.91 3.2 0 1013.1 0 14.0 22.9 31.3 81.8 68.7 233.6
26 09:00 8.5 80 6.83 5.2 11 1013.1 0.2 16.0 24.5 35.2 92.0 81.1 277.1
25 09:00 9.5 87 7.92 7.4 4 1013.1 0.1 18.3 26.0 39.2 102.7 94.6 324.7
24 09:00 9 60 5.29 1.8 4 1013.1 0.8 12.7 22.0 29.0 75.5 60.9 206.4
23 09:00 11.5 70 7.23 6.2 7 1013.1 5 16.8 24.3 35.4 92.8 83.2 284.8
22 09:00 16 74 10.08 11.4 15 1013.1 0 22.6 27.6 44.6 117.4 115.1 397.3
21 09:00 14.5 62 7.71 7.4 0 1013.1 0.6 17.7 24.3 36.0 94.2 86.1 295.3
20 09:00 15.5 54 7.14 6.2 0 1013.1 0.1 16.4 23.2 33.4 87.3 77.9 267.0

Last Refresh: 03-Dec-2021 09:12:30

Bureau of Meteorology